KNZY/NZY METAR and TAF weather

Enter ICAO airport designator
Station Type Date Time Source
KNZY METAR 2019/02/20 23:52 UTC NOAA

KNZY 202352Z 27012KT 10SM FEW028 BKN040 BKN060 16/07 A2987 RMK AO2 RAB07E20 SLP114 T01560067 10161 20139 56026 PNO $


Station Type Date Time Source
KNZY Decoded METAR 2019/02/20 23:52 UTC NOAA

NAS NORTH ISLAND, SAN DIEGO, CA, United States (KNZY) 32-42N 117-13W 14M
Feb 20, 2019 - 06:52 PM EST / 2019.02.20 2352 UTC
Wind: from the W (270 degrees) at 14 MPH (12 KT):0
Visibility: 10 mile(s):0
Sky conditions: mostly cloudy
Temperature: 60.1 F (15.6 C)
Dew Point: 44.1 F (6.7 C)
Relative Humidity: 55%
Pressure (altimeter): 29.87 in. Hg (1011 hPa)
Pressure tendency: 0.08 inches (2.6 hPa) lower than three hours ago
ob: KNZY 202352Z 27012KT 10SM FEW028 BKN040 BKN060 16/07 A2987 RMK AO2 RAB07E20 SLP114 T01560067 10161 20139 56026 PNO
cycle: 0

Station Type Date Time Source
KNZY TAF 2019/02/20 23:09 UTC NOAA

TAF KNZY 2023/2123 27009KT 9999 VCSH SCT025 BKN035 OVC060 650509 651404 540009 540909 541809 542709 QNH2984INS
TEMPO 2100/2103 24012G18KT 3200 SHRA BR SCT010 BKN020 OVC030
FM210300 28012KT 9000 -SHRA SCT020 BKN040 BKN060 650509 651404 540009 540909 541809 542709 QNH2980INS
TEMPO 2103/2109 29016G26KT 3200 SHRA BR BKN010 OVC020
FM211200 29012KT 9000 -SHRA FEW020 BKN040 BKN070 650509 651404 540009 540909 541809 542709 QNH2976INS
TEMPO 2113/2119 1600 TSRA BKN015 BKN030 OVC050 T10/2112Z T14/2121Z FS30022


Example: see airport list